createdAt,value
2024-02-24T00:00:02.037Z,4.97
2024-02-24T00:02:29.974Z,4.84
2024-02-24T00:04:58.529Z,4.91
2024-02-24T00:07:27.488Z,4.89
2024-02-24T00:09:55.116Z,4.86
2024-02-24T00:12:22.844Z,4.92
2024-02-24T00:14:50.499Z,4.77
2024-02-24T00:17:18.534Z,4.60
2024-02-24T00:19:46.134Z,4.42
2024-02-24T00:22:13.821Z,4.37
2024-02-24T00:24:42.739Z,4.23
2024-02-24T00:27:10.654Z,4.15
2024-02-24T00:29:38.273Z,3.96
2024-02-24T00:32:06.703Z,3.97
2024-02-24T00:34:34.651Z,4.02
2024-02-24T00:37:02.314Z,3.87
2024-02-24T00:39:29.938Z,3.72
2024-02-24T00:41:59.234Z,3.62
2024-02-24T00:44:26.952Z,3.59
2024-02-24T00:46:54.593Z,3.46
2024-02-24T00:49:22.425Z,3.40
2024-02-24T00:51:50.173Z,3.38
2024-02-24T00:54:18.115Z,3.46
2024-02-24T00:56:45.986Z,3.39
2024-02-24T00:59:15.039Z,3.54
2024-02-24T01:01:42.625Z,3.60
2024-02-24T01:04:10.236Z,3.60
2024-02-24T01:06:37.896Z,3.66
2024-02-24T01:09:05.651Z,3.58
2024-02-24T01:11:34.047Z,3.55
2024-02-24T01:14:01.876Z,3.57
2024-02-24T01:16:32.010Z,3.63
2024-02-24T01:18:59.694Z,3.68
2024-02-24T01:21:27.600Z,3.70
2024-02-24T01:23:55.313Z,3.76
2024-02-24T01:26:23.709Z,3.82
2024-02-24T01:28:53.218Z,3.54
2024-02-24T01:31:20.906Z,3.83
2024-02-24T01:33:50.175Z,3.91
2024-02-24T01:36:18.098Z,3.98
2024-02-24T01:38:45.821Z,4.00
2024-02-24T01:41:13.540Z,4.05
2024-02-24T01:43:41.162Z,3.94
2024-02-24T01:46:13.009Z,4.00
2024-02-24T01:48:40.869Z,4.11
2024-02-24T01:51:11.332Z,4.11
2024-02-24T01:53:39.618Z,3.96
2024-02-24T01:56:10.048Z,4.05
2024-02-24T01:58:38.879Z,4.11
2024-02-24T02:01:08.089Z,4.13
2024-02-24T02:03:37.354Z,4.14
2024-02-24T02:06:05.952Z,4.42
2024-02-24T02:08:35.025Z,4.41
2024-02-24T02:11:02.799Z,4.59
2024-02-24T02:13:30.742Z,4.54
2024-02-24T02:16:00.391Z,4.63
2024-02-24T02:18:29.573Z,4.61
2024-02-24T02:20:58.428Z,4.58
2024-02-24T02:23:27.628Z,4.47
2024-02-24T02:25:56.844Z,4.54
2024-02-24T02:28:24.859Z,4.37
2024-02-24T02:30:53.900Z,4.46
2024-02-24T02:33:21.824Z,4.43
2024-02-24T02:35:49.585Z,4.43
2024-02-24T02:38:17.320Z,4.17
2024-02-24T02:40:46.421Z,4.14
2024-02-24T02:43:14.044Z,4.17
2024-02-24T02:45:41.650Z,4.26
2024-02-24T02:48:09.621Z,4.43
2024-02-24T02:50:37.398Z,4.48
2024-02-24T02:53:05.727Z,4.42
2024-02-24T02:55:33.642Z,4.44
2024-02-24T02:58:02.685Z,4.44
2024-02-24T03:00:30.329Z,4.17
2024-02-24T03:02:58.009Z,4.02
2024-02-24T03:05:25.763Z,4.03
2024-02-24T03:07:53.415Z,4.08
2024-02-24T03:10:21.357Z,4.04
2024-02-24T03:12:49.098Z,4.06
2024-02-24T03:15:18.155Z,4.10
2024-02-24T03:17:45.899Z,4.11
2024-02-24T03:20:13.690Z,3.99
2024-02-24T03:22:41.284Z,3.96
2024-02-24T03:25:09.874Z,3.89
2024-02-24T03:27:37.515Z,3.91
2024-02-24T03:30:06.343Z,3.92
2024-02-24T03:32:35.398Z,3.88
2024-02-24T03:35:03.090Z,3.97
2024-02-24T03:37:30.712Z,3.96
2024-02-24T03:39:58.392Z,3.91
2024-02-24T03:42:25.978Z,3.93
2024-02-24T03:44:53.689Z,3.96
2024-02-24T03:47:21.327Z,3.92
2024-02-24T03:49:50.439Z,3.88
2024-02-24T03:52:18.071Z,3.93
2024-02-24T03:54:45.659Z,3.97
2024-02-24T03:57:13.261Z,3.94
2024-02-24T03:59:40.956Z,3.99
2024-02-24T04:02:08.583Z,3.97
2024-02-24T04:04:36.435Z,3.70
2024-02-24T04:07:05.949Z,3.75
2024-02-24T04:09:33.678Z,3.83
2024-02-24T04:12:01.582Z,3.80
2024-02-24T04:14:29.493Z,3.65
2024-02-24T04:16:57.673Z,3.70
2024-02-24T04:19:25.333Z,3.65
2024-02-24T04:21:52.924Z,3.62
2024-02-24T04:24:22.255Z,3.51
2024-02-24T04:26:50.114Z,3.55
2024-02-24T04:29:17.962Z,3.64
2024-02-24T04:31:45.854Z,3.69
2024-02-24T04:34:13.832Z,3.55
2024-02-24T04:36:42.912Z,3.61
2024-02-24T04:39:10.671Z,3.70
2024-02-24T04:41:39.822Z,3.68
2024-02-24T04:44:07.546Z,3.61
2024-02-24T04:46:35.530Z,3.57
2024-02-24T04:49:03.278Z,3.62
2024-02-24T04:51:31.765Z,3.55
2024-02-24T04:53:59.593Z,3.40
2024-02-24T04:56:27.245Z,3.27
2024-02-24T04:58:56.172Z,3.25
2024-02-24T05:01:23.820Z,3.23
2024-02-24T05:03:51.403Z,3.18
2024-02-24T05:06:19.340Z,3.27
2024-02-24T05:08:47.068Z,3.05
2024-02-24T05:11:15.497Z,3.16
2024-02-24T05:13:43.985Z,3.22
2024-02-24T05:16:12.910Z,3.39
2024-02-24T05:18:40.634Z,3.40
2024-02-24T05:21:08.677Z,3.42
2024-02-24T05:23:36.442Z,3.44
2024-02-24T05:26:04.626Z,3.44
2024-02-24T05:28:32.303Z,3.51
2024-02-24T05:30:59.959Z,3.36
2024-02-24T05:33:29.053Z,3.25
2024-02-24T05:35:56.738Z,3.17
2024-02-24T05:38:24.425Z,2.91
2024-02-24T05:40:52.246Z,2.64
2024-02-24T05:43:19.940Z,2.52
2024-02-24T05:45:47.555Z,2.54
2024-02-24T05:48:15.242Z,2.41
2024-02-24T05:50:44.501Z,2.51
2024-02-24T05:53:12.472Z,2.35
2024-02-24T05:55:40.397Z,2.37
2024-02-24T05:58:10.121Z,2.53
2024-02-24T06:00:38.038Z,2.52
2024-02-24T06:03:08.862Z,2.88
2024-02-24T06:05:36.815Z,3.34
2024-02-24T06:08:07.305Z,3.52
2024-02-24T06:10:35.027Z,3.94
2024-02-24T06:13:05.778Z,4.08
2024-02-24T06:15:33.997Z,4.29
2024-02-24T06:18:01.992Z,4.37
2024-02-24T06:20:29.783Z,4.35
2024-02-24T06:22:57.481Z,4.39
2024-02-24T06:25:26.528Z,4.37
2024-02-24T06:27:54.179Z,4.42
2024-02-24T06:30:22.417Z,4.44
2024-02-24T06:32:50.233Z,4.41
2024-02-24T06:35:18.120Z,4.36
2024-02-24T06:37:45.995Z,4.35
2024-02-24T06:40:17.911Z,4.25
2024-02-24T06:42:51.396Z,4.26
2024-02-24T06:45:19.104Z,4.16
2024-02-24T06:47:46.723Z,4.19
2024-02-24T06:50:14.455Z,4.11
2024-02-24T06:52:42.107Z,4.17
2024-02-24T06:55:09.952Z,4.15
2024-02-24T06:57:37.825Z,4.20
2024-02-24T07:00:08.771Z,4.15
2024-02-24T07:02:36.503Z,4.21
2024-02-24T07:05:04.682Z,4.22
2024-02-24T07:07:32.384Z,4.23
2024-02-24T07:10:00.627Z,4.20
2024-02-24T07:12:28.390Z,4.20
2024-02-24T07:14:56.166Z,4.25
2024-02-24T07:17:25.227Z,4.18
2024-02-24T07:19:52.836Z,4.26
2024-02-24T07:22:20.690Z,4.28
2024-02-24T07:24:48.440Z,4.33
2024-02-24T07:27:16.139Z,4.34
2024-02-24T07:29:43.891Z,4.32
2024-02-24T07:32:11.563Z,4.31
2024-02-24T07:34:40.564Z,4.43
2024-02-24T07:37:08.252Z,4.42
2024-02-24T07:39:37.003Z,4.50
2024-02-24T07:42:05.072Z,4.52
2024-02-24T07:44:32.788Z,4.48
2024-02-24T07:47:00.461Z,4.53
2024-02-24T07:49:28.170Z,4.50
2024-02-24T07:51:57.380Z,4.57
2024-02-24T07:54:25.277Z,4.60
2024-02-24T07:56:53.130Z,4.61
2024-02-24T07:59:20.766Z,4.69
2024-02-24T08:01:48.437Z,4.68
2024-02-24T08:04:16.078Z,4.75
2024-02-24T08:06:43.770Z,4.92
2024-02-24T08:09:13.004Z,5.00
2024-02-24T08:11:42.447Z,5.05
2024-02-24T08:14:10.491Z,5.17
2024-02-24T08:16:39.384Z,5.06
2024-02-24T08:19:08.364Z,5.19
2024-02-24T08:21:38.215Z,5.09
2024-02-24T08:24:09.463Z,4.99
2024-02-24T08:26:41.209Z,5.14
2024-02-24T08:29:11.164Z,5.18
2024-02-24T08:31:39.584Z,5.10
2024-02-24T08:34:07.651Z,5.22
2024-02-24T08:36:36.120Z,5.40
2024-02-24T08:39:04.483Z,5.36
2024-02-24T08:41:34.675Z,5.56
2024-02-24T08:44:04.233Z,5.69
2024-02-24T08:46:32.283Z,5.94
2024-02-24T08:49:00.035Z,5.81
2024-02-24T08:51:28.543Z,5.95
2024-02-24T08:53:56.905Z,6.00
2024-02-24T08:56:26.640Z,6.14
2024-02-24T08:58:54.496Z,6.20
2024-02-24T09:01:23.619Z,6.35
2024-02-24T09:03:52.185Z,6.36
2024-02-24T09:06:20.378Z,6.38
2024-02-24T09:08:48.273Z,6.07
2024-02-24T09:11:16.028Z,6.26
2024-02-24T09:13:43.712Z,6.17
2024-02-24T09:16:16.905Z,6.75
2024-02-24T09:18:45.873Z,7.12
2024-02-24T09:21:13.665Z,7.50
2024-02-24T09:23:41.553Z,7.39
2024-02-24T09:26:09.178Z,7.26
2024-02-24T09:28:36.778Z,6.60
2024-02-24T09:31:04.716Z,6.50
2024-02-24T09:33:32.448Z,6.31
2024-02-24T09:36:01.654Z,6.64
2024-02-24T09:38:29.393Z,6.42
2024-02-24T09:40:57.421Z,6.58
2024-02-24T09:43:25.229Z,6.05
2024-02-24T09:45:53.990Z,5.96
2024-02-24T09:48:24.812Z,6.12
2024-02-24T09:50:52.834Z,6.13
2024-02-24T09:53:22.041Z,6.11
2024-02-24T09:55:50.612Z,6.17
2024-02-24T09:58:19.604Z,6.22
2024-02-24T10:00:47.542Z,6.22
2024-02-24T10:03:15.803Z,6.26
2024-02-24T10:05:49.805Z,6.52
2024-02-24T10:08:17.475Z,6.31
2024-02-24T10:10:46.690Z,6.31
2024-02-24T10:13:18.633Z,6.44
2024-02-24T10:15:46.263Z,6.53
2024-02-24T10:18:15.837Z,6.50
2024-02-24T10:20:43.726Z,6.94
2024-02-24T10:23:13.727Z,8.09
2024-02-24T10:25:41.860Z,7.86
2024-02-24T10:28:10.807Z,7.36
2024-02-24T10:30:38.452Z,7.89
2024-02-24T10:33:07.475Z,8.05
2024-02-24T10:35:35.280Z,7.39
2024-02-24T10:38:18.218Z,7.22
2024-02-24T10:40:53.877Z,7.13
2024-02-24T10:43:26.944Z,7.44
2024-02-24T10:45:54.618Z,7.29
2024-02-24T10:48:22.817Z,7.87
2024-02-24T10:50:50.943Z,7.64
2024-02-24T10:53:23.153Z,8.38
2024-02-24T10:55:52.634Z,8.02
2024-02-24T10:58:21.166Z,8.84
2024-02-24T11:00:51.942Z,9.48
2024-02-24T11:03:21.653Z,8.96
2024-02-24T11:05:50.136Z,9.05
2024-02-24T11:08:37.743Z,9.29
2024-02-24T11:11:07.190Z,10.32
2024-02-24T11:13:35.226Z,10.09
2024-02-24T11:16:06.381Z,9.79
2024-02-24T11:18:56.489Z,8.36
2024-02-24T11:22:02.493Z,8.12
2024-02-24T11:24:34.411Z,8.25
2024-02-24T11:27:02.884Z,8.22
2024-02-24T11:29:31.439Z,8.16
2024-02-24T11:32:13.002Z,8.25
2024-02-24T11:34:45.162Z,8.39
2024-02-24T11:37:16.482Z,8.78
2024-02-24T11:39:45.697Z,9.00
2024-02-24T11:45:09.255Z,10.39
2024-02-24T11:47:39.792Z,10.45
2024-02-24T11:50:07.977Z,10.80
2024-02-24T11:52:35.619Z,10.72
2024-02-24T11:55:03.445Z,11.13
2024-02-24T11:57:31.200Z,11.06
2024-02-24T11:59:58.848Z,10.22
2024-02-24T12:02:26.505Z,10.45
2024-02-24T12:04:55.581Z,10.37
2024-02-24T12:07:24.270Z,9.77
2024-02-24T12:09:52.850Z,9.40
2024-02-24T12:12:21.111Z,9.05
2024-02-24T12:14:48.967Z,9.27
2024-02-24T12:17:16.792Z,9.13
2024-02-24T12:19:44.748Z,9.25
2024-02-24T12:22:14.916Z,9.05
2024-02-24T12:24:42.746Z,9.75
2024-02-24T12:27:10.713Z,10.05
2024-02-24T12:29:39.506Z,10.52
2024-02-24T12:32:08.107Z,9.95
2024-02-24T12:34:35.988Z,9.67
2024-02-24T12:37:05.342Z,9.86
2024-02-24T12:39:35.710Z,9.92
2024-02-24T12:42:03.428Z,10.32
2024-02-24T12:44:31.494Z,11.05
2024-02-24T12:46:59.214Z,10.22
2024-02-24T12:49:27.186Z,10.99
2024-02-24T12:51:54.864Z,10.26
2024-02-24T12:54:22.442Z,9.60
2024-02-24T12:56:51.501Z,10.24
2024-02-24T12:59:22.246Z,10.22
2024-02-24T13:01:50.241Z,10.14
2024-02-24T13:04:17.964Z,9.91
2024-02-24T13:06:45.646Z,9.65
2024-02-24T13:09:14.915Z,9.63
2024-02-24T13:11:42.794Z,9.48
2024-02-24T13:14:11.803Z,9.36
2024-02-24T13:16:39.471Z,9.39
2024-02-24T13:19:07.162Z,9.73
2024-02-24T13:21:34.857Z,9.62
2024-02-24T13:24:02.952Z,9.64
2024-02-24T13:26:30.582Z,9.56
2024-02-24T13:28:58.221Z,9.99
2024-02-24T13:31:30.018Z,10.17
2024-02-24T13:33:58.353Z,10.60
2024-02-24T13:36:27.733Z,10.71
2024-02-24T13:38:55.977Z,10.53
2024-02-24T13:41:24.103Z,10.21
2024-02-24T13:43:51.834Z,10.73
2024-02-24T13:46:19.458Z,11.01
2024-02-24T13:48:48.942Z,11.07
2024-02-24T13:51:16.705Z,10.54
2024-02-24T13:53:44.465Z,10.82
2024-02-24T13:56:12.249Z,10.55
2024-02-24T13:58:39.975Z,10.87
2024-02-24T14:01:07.637Z,10.12
2024-02-24T14:03:35.240Z,9.65
2024-02-24T14:06:05.328Z,10.12
2024-02-24T14:08:33.212Z,10.14
2024-02-24T14:11:00.929Z,10.15
2024-02-24T14:13:31.465Z,10.04
2024-02-24T14:15:59.530Z,9.96
2024-02-24T14:18:27.518Z,10.36
2024-02-24T14:20:55.420Z,10.74
2024-02-24T14:23:24.426Z,10.31
2024-02-24T14:25:52.105Z,9.84
2024-02-24T14:28:19.687Z,9.86
2024-02-24T14:30:47.697Z,9.60
2024-02-24T14:33:15.714Z,9.69
2024-02-24T14:35:43.737Z,9.49
2024-02-24T14:38:11.448Z,9.61
2024-02-24T14:40:40.385Z,9.81
2024-02-24T14:43:07.944Z,9.68
2024-02-24T14:45:35.891Z,9.50
2024-02-24T14:48:06.139Z,9.43
2024-02-24T14:50:34.198Z,9.51
2024-02-24T14:53:02.156Z,9.25
2024-02-24T14:55:29.814Z,9.38
2024-02-24T14:57:59.200Z,9.16
2024-02-24T15:00:27.167Z,9.08
2024-02-24T15:03:08.505Z,9.15
2024-02-24T15:05:38.346Z,9.21
2024-02-24T15:08:07.106Z,9.23
2024-02-24T15:10:34.788Z,9.14
2024-02-24T15:13:03.829Z,9.12
2024-02-24T15:15:31.718Z,9.17
2024-02-24T15:18:00.391Z,9.01
2024-02-24T15:20:28.264Z,9.24
2024-02-24T15:22:55.963Z,9.31
2024-02-24T15:25:23.909Z,9.18
2024-02-24T15:27:51.577Z,9.34
2024-02-24T15:30:23.067Z,9.20
2024-02-24T15:32:56.156Z,8.96
2024-02-24T15:35:23.947Z,8.73
2024-02-24T15:37:51.992Z,8.59
2024-02-24T15:40:19.678Z,8.54
2024-02-24T15:42:47.411Z,8.38
2024-02-24T15:45:15.242Z,8.32
2024-02-24T15:47:44.827Z,8.26
2024-02-24T15:50:12.566Z,8.23
2024-02-24T15:52:41.984Z,8.21
2024-02-24T15:55:09.716Z,8.22
2024-02-24T15:57:37.377Z,8.17
2024-02-24T16:00:06.292Z,8.18
2024-02-24T16:02:34.065Z,8.11
2024-02-24T16:05:03.219Z,8.16
2024-02-24T16:07:31.113Z,8.13
2024-02-24T16:09:59.220Z,8.07
2024-02-24T16:12:28.444Z,8.01
2024-02-24T16:14:56.274Z,7.98
2024-02-24T16:17:23.999Z,8.01
2024-02-24T16:19:52.204Z,7.97
2024-02-24T16:22:21.280Z,8.01
2024-02-24T16:24:49.003Z,7.95
2024-02-24T16:27:16.677Z,7.94
2024-02-24T16:29:44.404Z,7.75
2024-02-24T16:32:12.024Z,7.66
2024-02-24T16:34:39.672Z,7.78
2024-02-24T16:37:07.886Z,7.73
2024-02-24T16:39:37.047Z,7.51
2024-02-24T16:42:05.366Z,7.43
2024-02-24T16:44:33.000Z,7.24
2024-02-24T16:47:00.694Z,6.87
2024-02-24T16:49:28.451Z,6.71
2024-02-24T16:51:56.325Z,6.55
2024-02-24T16:54:24.241Z,6.28
2024-02-24T16:56:53.324Z,6.32
2024-02-24T16:59:21.102Z,6.28
2024-02-24T17:01:48.760Z,6.31
2024-02-24T17:04:16.810Z,6.31
2024-02-24T17:06:44.670Z,6.23
2024-02-24T17:09:12.419Z,6.20
2024-02-24T17:11:40.513Z,5.95
2024-02-24T17:14:09.639Z,5.86
2024-02-24T17:16:37.335Z,5.84
2024-02-24T17:19:05.151Z,5.85
2024-02-24T17:21:33.175Z,5.79
2024-02-24T17:24:00.927Z,5.78
2024-02-24T17:26:28.695Z,5.63
2024-02-24T17:28:56.543Z,5.44
2024-02-24T17:31:25.536Z,5.31
2024-02-24T17:33:55.203Z,5.20
2024-02-24T17:36:23.041Z,4.98
2024-02-24T17:38:50.893Z,5.01
2024-02-24T17:41:20.223Z,4.92
2024-02-24T17:43:48.110Z,4.92
2024-02-24T17:46:17.330Z,4.96
2024-02-24T17:48:47.850Z,4.92
2024-02-24T17:51:16.368Z,4.96
2024-02-24T17:53:44.119Z,5.00
2024-02-24T17:56:11.691Z,4.94
2024-02-24T17:58:44.698Z,4.77
2024-02-24T18:01:15.596Z,4.63
2024-02-24T18:03:43.538Z,4.67
2024-02-24T18:06:12.731Z,4.61
2024-02-24T18:08:40.839Z,4.52
2024-02-24T18:11:10.591Z,4.42
2024-02-24T18:13:38.295Z,4.43
2024-02-24T18:16:09.421Z,4.43
2024-02-24T18:18:37.104Z,4.41
2024-02-24T18:21:05.262Z,4.29
2024-02-24T18:23:34.300Z,4.30
2024-02-24T18:26:01.906Z,4.22
2024-02-24T18:28:29.576Z,4.15
2024-02-24T18:30:57.278Z,4.27
2024-02-24T18:33:25.021Z,4.15
2024-02-24T18:35:52.766Z,4.07
2024-02-24T18:38:20.999Z,3.98
2024-02-24T18:40:50.008Z,3.86
2024-02-24T18:43:20.676Z,3.90
2024-02-24T18:45:48.394Z,3.92
2024-02-24T18:48:16.256Z,3.73
2024-02-24T18:50:44.190Z,3.75
2024-02-24T18:53:12.189Z,3.70
2024-02-24T18:55:39.777Z,3.72
2024-02-24T18:58:08.762Z,3.70
2024-02-24T19:00:36.672Z,3.52
2024-02-24T19:03:04.619Z,3.48
2024-02-24T19:05:32.509Z,3.44
2024-02-24T19:08:00.523Z,3.41
2024-02-24T19:10:28.181Z,3.33
2024-02-24T19:12:55.900Z,3.38
2024-02-24T19:15:24.917Z,3.31
2024-02-24T19:17:52.969Z,3.24
2024-02-24T19:20:20.734Z,3.17
2024-02-24T19:22:48.467Z,3.18
2024-02-24T19:25:17.887Z,3.02
2024-02-24T19:27:46.614Z,3.02
2024-02-24T19:30:14.866Z,2.91
2024-02-24T19:32:46.802Z,2.87
2024-02-24T19:35:15.144Z,2.77
2024-02-24T19:37:42.862Z,2.68
2024-02-24T19:40:11.945Z,2.61
2024-02-24T19:42:39.572Z,2.62
2024-02-24T19:45:08.168Z,2.60
2024-02-24T19:47:36.207Z,2.53
2024-02-24T19:50:05.813Z,2.40
2024-02-24T19:52:34.018Z,2.36
2024-02-24T19:55:01.668Z,2.32
2024-02-24T19:57:29.309Z,2.26
2024-02-24T19:59:58.580Z,2.26
2024-02-24T20:02:26.806Z,2.21
2024-02-24T20:04:54.492Z,2.20
2024-02-24T20:07:23.824Z,2.13
2024-02-24T20:09:52.102Z,2.18
2024-02-24T20:12:19.940Z,2.08
2024-02-24T20:14:50.186Z,2.04
2024-02-24T20:17:19.132Z,1.94
2024-02-24T20:19:47.270Z,1.91
2024-02-24T20:22:15.795Z,1.82
2024-02-24T20:24:44.862Z,1.82
2024-02-24T20:27:14.670Z,1.80
2024-02-24T20:29:42.377Z,1.78
2024-02-24T20:32:10.052Z,1.87
2024-02-24T20:34:37.883Z,1.89
2024-02-24T20:37:06.320Z,1.90
2024-02-24T20:39:33.926Z,1.80
2024-02-24T20:42:02.948Z,1.75
2024-02-24T20:44:30.774Z,1.68
2024-02-24T20:46:58.694Z,1.68
2024-02-24T20:49:27.531Z,1.64
2024-02-24T20:51:59.449Z,1.72
2024-02-24T20:54:29.873Z,1.60
2024-02-24T20:56:58.536Z,1.52
2024-02-24T20:59:27.926Z,1.58
2024-02-24T21:01:55.770Z,1.53
2024-02-24T21:04:23.712Z,1.40
2024-02-24T21:06:51.538Z,1.49
2024-02-24T21:09:19.281Z,1.44
2024-02-24T21:11:47.291Z,1.36
2024-02-24T21:14:15.247Z,1.35
2024-02-24T21:16:44.358Z,1.43
2024-02-24T21:19:12.184Z,1.35
2024-02-24T21:21:41.002Z,1.40
2024-02-24T21:24:09.200Z,1.31
2024-02-24T21:26:37.338Z,1.25
2024-02-24T21:29:05.142Z,1.27
2024-02-24T21:31:32.970Z,1.36
2024-02-24T21:34:02.310Z,1.27
2024-02-24T21:36:33.649Z,1.23
2024-02-24T21:39:02.602Z,1.16
2024-02-24T21:41:31.704Z,1.21
2024-02-24T21:43:59.515Z,1.13
2024-02-24T21:46:27.358Z,1.13
2024-02-24T21:48:56.031Z,1.12
2024-02-24T21:51:25.382Z,1.20
2024-02-24T21:53:53.304Z,1.21
2024-02-24T21:56:24.235Z,1.11
2024-02-24T21:58:53.171Z,0.94
2024-02-24T22:01:22.765Z,0.96
2024-02-24T22:03:50.909Z,1.06
2024-02-24T22:06:18.926Z,1.14
2024-02-24T22:08:48.283Z,1.10
2024-02-24T22:11:15.970Z,1.05
2024-02-24T22:13:45.386Z,0.87
2024-02-24T22:16:13.549Z,0.77
2024-02-24T22:18:41.429Z,0.95
2024-02-24T22:21:10.181Z,1.07
2024-02-24T22:23:37.977Z,1.07
2024-02-24T22:26:07.915Z,1.11
2024-02-24T22:28:35.640Z,1.20
2024-02-24T22:31:03.761Z,1.06
2024-02-24T22:33:31.684Z,1.00
2024-02-24T22:35:59.427Z,1.08
2024-02-24T22:38:27.108Z,0.89
2024-02-24T22:40:54.913Z,0.90
2024-02-24T22:43:23.891Z,0.73
2024-02-24T22:45:51.521Z,0.68
2024-02-24T22:48:19.357Z,0.70
2024-02-24T22:50:47.213Z,0.73
2024-02-24T22:53:15.172Z,0.77
2024-02-24T22:55:43.501Z,0.80
2024-02-24T22:58:11.338Z,0.76
2024-02-24T23:00:40.295Z,0.67
2024-02-24T23:03:08.051Z,0.59
2024-02-24T23:05:35.798Z,0.55
2024-02-24T23:08:03.768Z,0.57
2024-02-24T23:10:31.383Z,0.46
2024-02-24T23:12:58.942Z,0.52
2024-02-24T23:15:26.647Z,0.48
2024-02-24T23:17:55.753Z,0.62
2024-02-24T23:20:23.512Z,0.42
2024-02-24T23:22:51.182Z,0.54
2024-02-24T23:25:21.621Z,0.53
2024-02-24T23:27:49.370Z,0.42
2024-02-24T23:30:17.283Z,0.49
2024-02-24T23:32:46.197Z,0.46
2024-02-24T23:35:15.771Z,0.39
2024-02-24T23:37:43.508Z,0.32
2024-02-24T23:40:12.312Z,0.37
2024-02-24T23:42:39.949Z,0.35
2024-02-24T23:45:08.136Z,0.39
2024-02-24T23:47:36.030Z,0.56
2024-02-24T23:50:04.322Z,0.46
2024-02-24T23:52:33.330Z,0.56
2024-02-24T23:55:01.600Z,0.54
2024-02-24T23:57:33.759Z,0.71
